sensor_id;sensor_type;location;lat;lon;timestamp;pressure;altitude;pressure_sealevel;temperature;humidity
78613;BME280;67933;51.060;3.638;2023-06-24T00:01:34;102628.88;;;13.80;88.09
78613;BME280;67933;51.060;3.638;2023-06-24T00:03:59;102626.28;;;13.78;87.24
78613;BME280;67933;51.060;3.638;2023-06-24T00:06:24;102620.94;;;13.78;87.57
78613;BME280;67933;51.060;3.638;2023-06-24T00:08:51;102620.50;;;13.89;86.59
78613;BME280;67933;51.060;3.638;2023-06-24T00:11:17;102627.38;;;13.95;86.19
78613;BME280;67933;51.060;3.638;2023-06-24T00:13:44;102626.50;;;13.94;85.49
78613;BME280;67933;51.060;3.638;2023-06-24T00:16:10;102624.09;;;13.88;86.16
78613;BME280;67933;51.060;3.638;2023-06-24T00:18:37;102627.91;;;13.82;86.00
78613;BME280;67933;51.060;3.638;2023-06-24T00:21:06;102623.81;;;13.74;86.01
78613;BME280;67933;51.060;3.638;2023-06-24T00:23:31;102623.63;;;13.78;86.32
78613;BME280;67933;51.060;3.638;2023-06-24T00:26:00;102625.19;;;13.84;85.87
78613;BME280;67933;51.060;3.638;2023-06-24T00:28:25;102621.44;;;13.88;85.24
78613;BME280;67933;51.060;3.638;2023-06-24T00:30:52;102626.66;;;13.91;85.03
78613;BME280;67933;51.060;3.638;2023-06-24T00:33:17;102631.28;;;13.86;85.71
78613;BME280;67933;51.060;3.638;2023-06-24T00:35:45;102623.72;;;13.77;86.17
78613;BME280;67933;51.060;3.638;2023-06-24T00:38:10;102620.09;;;13.78;85.99
78613;BME280;67933;51.060;3.638;2023-06-24T00:40:37;102625.56;;;13.75;85.98
78613;BME280;67933;51.060;3.638;2023-06-24T00:43:03;102623.09;;;13.70;86.56
78613;BME280;67933;51.060;3.638;2023-06-24T00:45:29;102614.56;;;13.62;87.48
78613;BME280;67933;51.060;3.638;2023-06-24T00:48:00;102621.25;;;13.51;88.14
78613;BME280;67933;51.060;3.638;2023-06-24T00:50:26;102630.44;;;13.43;87.75
78613;BME280;67933;51.060;3.638;2023-06-24T00:52:52;102637.00;;;13.35;88.66
78613;BME280;67933;51.060;3.638;2023-06-24T00:55:17;102637.31;;;13.27;89.30
78613;BME280;67933;51.060;3.638;2023-06-24T00:57:47;102626.09;;;13.19;89.34
78613;BME280;67933;51.060;3.638;2023-06-24T01:00:18;102632.56;;;13.12;89.84
78613;BME280;67933;51.060;3.638;2023-06-24T01:02:44;102628.31;;;13.08;90.11
78613;BME280;67933;51.060;3.638;2023-06-24T01:05:12;102627.50;;;13.06;89.72
78613;BME280;67933;51.060;3.638;2023-06-24T01:07:38;102631.69;;;13.13;90.01
78613;BME280;67933;51.060;3.638;2023-06-24T01:10:04;102622.75;;;13.14;89.76
78613;BME280;67933;51.060;3.638;2023-06-24T01:12:34;102623.56;;;13.16;89.72
78613;BME280;67933;51.060;3.638;2023-06-24T01:15:00;102629.91;;;13.12;89.83
78613;BME280;67933;51.060;3.638;2023-06-24T01:17:35;102633.50;;;13.11;89.50
78613;BME280;67933;51.060;3.638;2023-06-24T01:20:10;102626.66;;;13.04;90.38
78613;BME280;67933;51.060;3.638;2023-06-24T01:23:00;102624.31;;;12.96;90.66
78613;BME280;67933;51.060;3.638;2023-06-24T01:30:58;102615.13;;;12.82;91.43
78613;BME280;67933;51.060;3.638;2023-06-24T01:36:38;102611.09;;;12.93;91.03
78613;BME280;67933;51.060;3.638;2023-06-24T01:39:08;102609.19;;;12.97;90.74
78613;BME280;67933;51.060;3.638;2023-06-24T01:41:40;102608.69;;;13.09;90.56
78613;BME280;67933;51.060;3.638;2023-06-24T01:44:08;102606.84;;;13.11;90.26
78613;BME280;67933;51.060;3.638;2023-06-24T01:46:35;102615.81;;;13.08;90.44
78613;BME280;67933;51.060;3.638;2023-06-24T01:49:04;102619.25;;;13.12;90.20
78613;BME280;67933;51.060;3.638;2023-06-24T01:51:32;102619.34;;;13.09;90.52
78613;BME280;67933;51.060;3.638;2023-06-24T01:54:05;102621.34;;;13.04;91.15
78613;BME280;67933;51.060;3.638;2023-06-24T01:56:32;102610.94;;;12.98;91.39
78613;BME280;67933;51.060;3.638;2023-06-24T01:59:01;102620.78;;;12.96;92.33
78613;BME280;67933;51.060;3.638;2023-06-24T02:01:35;102618.25;;;12.93;92.12
78613;BME280;67933;51.060;3.638;2023-06-24T02:04:02;102622.72;;;12.92;91.99
78613;BME280;67933;51.060;3.638;2023-06-24T02:06:28;102621.53;;;12.99;91.09
78613;BME280;67933;51.060;3.638;2023-06-24T02:08:55;102625.94;;;13.00;91.30
78613;BME280;67933;51.060;3.638;2023-06-24T02:11:23;102615.19;;;13.02;90.98
78613;BME280;67933;51.060;3.638;2023-06-24T02:13:50;102616.63;;;13.10;90.80
78613;BME280;67933;51.060;3.638;2023-06-24T02:16:16;102608.03;;;13.04;90.02
78613;BME280;67933;51.060;3.638;2023-06-24T02:18:42;102608.44;;;12.93;90.37
78613;BME280;67933;51.060;3.638;2023-06-24T02:21:10;102605.34;;;12.82;91.58
78613;BME280;67933;51.060;3.638;2023-06-24T02:23:39;102617.22;;;12.73;91.53
78613;BME280;67933;51.060;3.638;2023-06-24T02:26:06;102613.16;;;12.63;92.55
78613;BME280;67933;51.060;3.638;2023-06-24T02:28:32;102618.75;;;12.56;91.94
78613;BME280;67933;51.060;3.638;2023-06-24T02:30:59;102614.53;;;12.50;92.79
78613;BME280;67933;51.060;3.638;2023-06-24T02:33:25;102610.44;;;12.42;92.23
78613;BME280;67933;51.060;3.638;2023-06-24T02:35:52;102613.28;;;12.37;92.52
78613;BME280;67933;51.060;3.638;2023-06-24T02:38:17;102612.50;;;12.33;93.09
78613;BME280;67933;51.060;3.638;2023-06-24T02:40:45;102615.06;;;12.37;93.49
78613;BME280;67933;51.060;3.638;2023-06-24T02:43:10;102613.13;;;12.40;93.85
78613;BME280;67933;51.060;3.638;2023-06-24T02:45:36;102616.66;;;12.41;93.22
78613;BME280;67933;51.060;3.638;2023-06-24T02:48:02;102619.53;;;12.36;93.47
78613;BME280;67933;51.060;3.638;2023-06-24T02:50:28;102615.06;;;12.37;93.64
78613;BME280;67933;51.060;3.638;2023-06-24T02:52:54;102607.19;;;12.33;93.55
78613;BME280;67933;51.060;3.638;2023-06-24T02:55:21;102615.75;;;12.42;93.96
78613;BME280;67933;51.060;3.638;2023-06-24T02:57:47;102616.28;;;12.51;94.33
78613;BME280;67933;51.060;3.638;2023-06-24T03:00:13;102609.22;;;12.50;93.66
78613;BME280;67933;51.060;3.638;2023-06-24T03:02:40;102607.81;;;12.63;93.75
78613;BME280;67933;51.060;3.638;2023-06-24T03:05:07;102607.72;;;12.66;93.37
78613;BME280;67933;51.060;3.638;2023-06-24T03:07:33;102607.38;;;12.52;93.14
78613;BME280;67933;51.060;3.638;2023-06-24T03:10:02;102610.47;;;12.40;93.25
78613;BME280;67933;51.060;3.638;2023-06-24T03:12:28;102602.72;;;12.34;94.22
78613;BME280;67933;51.060;3.638;2023-06-24T03:14:54;102607.72;;;12.43;94.75
78613;BME280;67933;51.060;3.638;2023-06-24T03:17:20;102600.66;;;12.42;94.72
78613;BME280;67933;51.060;3.638;2023-06-24T03:19:45;102610.16;;;12.49;94.47
78613;BME280;67933;51.060;3.638;2023-06-24T03:22:11;102606.31;;;12.56;94.81
78613;BME280;67933;51.060;3.638;2023-06-24T03:24:36;102600.94;;;12.58;93.91
78613;BME280;67933;51.060;3.638;2023-06-24T03:27:01;102604.44;;;12.60;94.45
78613;BME280;67933;51.060;3.638;2023-06-24T03:29:27;102603.56;;;12.59;93.61
78613;BME280;67933;51.060;3.638;2023-06-24T03:31:53;102599.84;;;12.63;94.24
78613;BME280;67933;51.060;3.638;2023-06-24T03:34:19;102608.53;;;12.68;93.81
78613;BME280;67933;51.060;3.638;2023-06-24T03:36:44;102603.13;;;12.70;93.22
78613;BME280;67933;51.060;3.638;2023-06-24T03:39:10;102622.06;;;12.62;93.13
78613;BME280;67933;51.060;3.638;2023-06-24T03:41:35;102614.22;;;12.59;94.22
78613;BME280;67933;51.060;3.638;2023-06-24T03:44:01;102606.16;;;12.61;93.72
78613;BME280;67933;51.060;3.638;2023-06-24T03:46:26;102604.66;;;12.54;94.37
78613;BME280;67933;51.060;3.638;2023-06-24T03:48:52;102611.00;;;12.50;94.39
78613;BME280;67933;51.060;3.638;2023-06-24T03:51:17;102607.44;;;12.51;94.05
78613;BME280;67933;51.060;3.638;2023-06-24T03:53:43;102616.28;;;12.51;94.44
78613;BME280;67933;51.060;3.638;2023-06-24T03:56:08;102610.81;;;12.54;94.99
78613;BME280;67933;51.060;3.638;2023-06-24T03:58:34;102611.59;;;12.58;94.99
78613;BME280;67933;51.060;3.638;2023-06-24T04:01:00;102608.59;;;12.67;94.63
78613;BME280;67933;51.060;3.638;2023-06-24T04:03:25;102600.25;;;12.76;95.27
78613;BME280;67933;51.060;3.638;2023-06-24T04:05:53;102606.00;;;12.87;93.92
78613;BME280;67933;51.060;3.638;2023-06-24T04:08:19;102612.22;;;12.88;93.66
78613;BME280;67933;51.060;3.638;2023-06-24T04:10:44;102611.41;;;12.86;94.23
78613;BME280;67933;51.060;3.638;2023-06-24T04:13:10;102619.16;;;12.92;93.82
78613;BME280;67933;51.060;3.638;2023-06-24T04:15:35;102623.22;;;12.79;93.55
78613;BME280;67933;51.060;3.638;2023-06-24T04:18:01;102614.53;;;12.73;94.29
78613;BME280;67933;51.060;3.638;2023-06-24T04:20:26;102623.94;;;12.84;94.53
78613;BME280;67933;51.060;3.638;2023-06-24T04:22:51;102619.09;;;12.93;94.54
78613;BME280;67933;51.060;3.638;2023-06-24T04:25:17;102621.44;;;13.01;94.26
78613;BME280;67933;51.060;3.638;2023-06-24T04:27:42;102619.28;;;13.10;94.17
78613;BME280;67933;51.060;3.638;2023-06-24T04:30:08;102621.56;;;13.21;94.04
78613;BME280;67933;51.060;3.638;2023-06-24T04:32:33;102617.53;;;13.33;93.95
78613;BME280;67933;51.060;3.638;2023-06-24T04:34:59;102607.50;;;13.39;93.86
78613;BME280;67933;51.060;3.638;2023-06-24T04:37:28;102609.91;;;13.45;93.11
78613;BME280;67933;51.060;3.638;2023-06-24T04:39:53;102607.00;;;13.52;93.56
78613;BME280;67933;51.060;3.638;2023-06-24T04:42:19;102625.13;;;13.64;92.78
78613;BME280;67933;51.060;3.638;2023-06-24T04:44:44;102628.22;;;13.75;93.25
78613;BME280;67933;51.060;3.638;2023-06-24T04:47:09;102621.03;;;13.77;93.15
78613;BME280;67933;51.060;3.638;2023-06-24T04:49:35;102626.75;;;13.88;92.46
78613;BME280;67933;51.060;3.638;2023-06-24T04:52:01;102629.09;;;13.96;92.09
78613;BME280;67933;51.060;3.638;2023-06-24T04:54:26;102626.84;;;14.07;92.05
78613;BME280;67933;51.060;3.638;2023-06-24T04:56:52;102623.84;;;14.14;91.57
78613;BME280;67933;51.060;3.638;2023-06-24T04:59:20;102620.09;;;14.18;91.86
78613;BME280;67933;51.060;3.638;2023-06-24T05:01:46;102626.13;;;14.23;92.07
78613;BME280;67933;51.060;3.638;2023-06-24T05:04:11;102619.69;;;14.27;92.11
78613;BME280;67933;51.060;3.638;2023-06-24T05:06:36;102613.19;;;14.33;92.64
78613;BME280;67933;51.060;3.638;2023-06-24T05:09:02;102627.03;;;14.43;92.33
78613;BME280;67933;51.060;3.638;2023-06-24T05:11:27;102622.09;;;14.54;90.05
78613;BME280;67933;51.060;3.638;2023-06-24T05:13:53;102617.78;;;14.70;89.98
78613;BME280;67933;51.060;3.638;2023-06-24T05:16:18;102626.13;;;14.81;90.04
78613;BME280;67933;51.060;3.638;2023-06-24T05:18:44;102622.25;;;14.88;89.59
78613;BME280;67933;51.060;3.638;2023-06-24T05:21:10;102631.34;;;15.03;89.56
78613;BME280;67933;51.060;3.638;2023-06-24T05:23:36;102636.03;;;15.17;88.13
78613;BME280;67933;51.060;3.638;2023-06-24T05:26:01;102626.28;;;15.16;88.47
78613;BME280;67933;51.060;3.638;2023-06-24T05:28:27;102625.69;;;15.28;88.72
78613;BME280;67933;51.060;3.638;2023-06-24T05:30:52;102622.63;;;15.35;88.68
78613;BME280;67933;51.060;3.638;2023-06-24T05:33:17;102635.63;;;15.43;88.58
78613;BME280;67933;51.060;3.638;2023-06-24T05:35:43;102636.94;;;15.53;87.17
78613;BME280;67933;51.060;3.638;2023-06-24T05:38:09;102632.88;;;15.63;86.93
78613;BME280;67933;51.060;3.638;2023-06-24T05:40:34;102635.06;;;15.72;85.85
78613;BME280;67933;51.060;3.638;2023-06-24T05:43:00;102629.41;;;15.78;87.19
78613;BME280;67933;51.060;3.638;2023-06-24T05:45:26;102637.91;;;15.87;85.67
78613;BME280;67933;51.060;3.638;2023-06-24T05:47:51;102637.34;;;15.97;85.06
78613;BME280;67933;51.060;3.638;2023-06-24T05:50:17;102636.34;;;16.00;84.54
78613;BME280;67933;51.060;3.638;2023-06-24T05:52:42;102641.50;;;16.03;84.95
78613;BME280;67933;51.060;3.638;2023-06-24T05:55:08;102637.19;;;16.17;85.05
78613;BME280;67933;51.060;3.638;2023-06-24T05:57:34;102631.59;;;16.22;85.96
78613;BME280;67933;51.060;3.638;2023-06-24T06:00:00;102636.69;;;16.27;83.56
78613;BME280;67933;51.060;3.638;2023-06-24T06:02:25;102640.88;;;16.32;84.21
78613;BME280;67933;51.060;3.638;2023-06-24T06:04:51;102646.59;;;16.42;84.03
78613;BME280;67933;51.060;3.638;2023-06-24T06:07:16;102646.91;;;16.53;83.86
78613;BME280;67933;51.060;3.638;2023-06-24T06:09:42;102637.56;;;16.60;82.71
78613;BME280;67933;51.060;3.638;2023-06-24T06:12:09;102636.41;;;16.66;82.45
78613;BME280;67933;51.060;3.638;2023-06-24T06:14:34;102633.63;;;16.67;83.42
78613;BME280;67933;51.060;3.638;2023-06-24T06:17:00;102641.09;;;16.78;82.12
78613;BME280;67933;51.060;3.638;2023-06-24T06:19:25;102634.53;;;16.83;83.15
78613;BME280;67933;51.060;3.638;2023-06-24T06:21:51;102643.09;;;16.90;83.14
78613;BME280;67933;51.060;3.638;2023-06-24T06:24:16;102639.56;;;17.05;82.07
78613;BME280;67933;51.060;3.638;2023-06-24T06:26:42;102645.56;;;17.10;81.58
78613;BME280;67933;51.060;3.638;2023-06-24T06:29:09;102647.81;;;17.18;80.99
78613;BME280;67933;51.060;3.638;2023-06-24T06:31:34;102645.09;;;17.34;80.61
78613;BME280;67933;51.060;3.638;2023-06-24T06:34:00;102652.69;;;17.57;80.11
78613;BME280;67933;51.060;3.638;2023-06-24T06:36:27;102647.94;;;18.36;76.72
78613;BME280;67933;51.060;3.638;2023-06-24T06:38:52;102655.81;;;19.10;72.52
78613;BME280;67933;51.060;3.638;2023-06-24T06:41:17;102650.50;;;19.64;70.78
78613;BME280;67933;51.060;3.638;2023-06-24T06:43:49;102657.50;;;20.18;68.93
78613;BME280;67933;51.060;3.638;2023-06-24T06:46:14;102654.53;;;20.73;65.70
78613;BME280;67933;51.060;3.638;2023-06-24T06:48:40;102636.50;;;20.74;65.33
78613;BME280;67933;51.060;3.638;2023-06-24T06:51:05;102640.03;;;21.36;64.00
78613;BME280;67933;51.060;3.638;2023-06-24T06:53:31;102644.50;;;21.83;62.14
78613;BME280;67933;51.060;3.638;2023-06-24T06:55:56;102642.22;;;22.25;61.24
78613;BME280;67933;51.060;3.638;2023-06-24T07:00:47;102644.72;;;22.73;58.28
78613;BME280;67933;51.060;3.638;2023-06-24T07:03:12;102642.19;;;23.36;57.41
78613;BME280;67933;51.060;3.638;2023-06-24T07:05:38;102638.16;;;23.74;56.02
78613;BME280;67933;51.060;3.638;2023-06-24T07:08:05;102633.66;;;24.05;54.64
78613;BME280;67933;51.060;3.638;2023-06-24T07:10:30;102636.06;;;23.98;55.58
78613;BME280;67933;51.060;3.638;2023-06-24T07:12:55;102635.47;;;24.15;53.86
78613;BME280;67933;51.060;3.638;2023-06-24T07:15:26;102634.97;;;24.10;53.90
78613;BME280;67933;51.060;3.638;2023-06-24T07:17:52;102632.25;;;24.22;52.83
78613;BME280;67933;51.060;3.638;2023-06-24T07:20:18;102624.84;;;24.54;52.43
78613;BME280;67933;51.060;3.638;2023-06-24T07:22:44;102629.91;;;24.68;52.68
78613;BME280;67933;51.060;3.638;2023-06-24T07:25:09;102618.53;;;24.84;52.50
78613;BME280;67933;51.060;3.638;2023-06-24T07:27:35;102625.31;;;25.09;51.41
78613;BME280;67933;51.060;3.638;2023-06-24T07:30:00;102633.09;;;25.33;50.98
78613;BME280;67933;51.060;3.638;2023-06-24T07:32:26;102624.84;;;25.73;50.22
78613;BME280;67933;51.060;3.638;2023-06-24T07:34:51;102634.88;;;26.01;50.81
78613;BME280;67933;51.060;3.638;2023-06-24T07:37:16;102625.91;;;26.47;49.43
78613;BME280;67933;51.060;3.638;2023-06-24T07:39:42;102628.78;;;26.73;47.64
78613;BME280;67933;51.060;3.638;2023-06-24T07:42:07;102634.75;;;26.86;46.56
78613;BME280;67933;51.060;3.638;2023-06-24T07:44:33;102630.16;;;26.50;48.25
78613;BME280;67933;51.060;3.638;2023-06-24T07:46:58;102630.44;;;26.56;48.28
78613;BME280;67933;51.060;3.638;2023-06-24T07:49:24;102634.34;;;26.81;46.99
78613;BME280;67933;51.060;3.638;2023-06-24T07:51:49;102636.38;;;26.79;47.72
78613;BME280;67933;51.060;3.638;2023-06-24T07:54:15;102629.97;;;27.25;47.34
78613;BME280;67933;51.060;3.638;2023-06-24T07:56:40;102639.09;;;27.51;45.99
78613;BME280;67933;51.060;3.638;2023-06-24T07:59:05;102628.31;;;28.03;45.77
78613;BME280;67933;51.060;3.638;2023-06-24T08:01:31;102628.09;;;27.96;44.21
78613;BME280;67933;51.060;3.638;2023-06-24T08:03:56;102618.44;;;28.28;43.24
78613;BME280;67933;51.060;3.638;2023-06-24T08:06:22;102618.66;;;28.09;43.87
78613;BME280;67933;51.060;3.638;2023-06-24T08:08:47;102622.03;;;28.03;46.19
78613;BME280;67933;51.060;3.638;2023-06-24T08:11:13;102619.59;;;28.51;43.54
78613;BME280;67933;51.060;3.638;2023-06-24T08:13:39;102618.47;;;28.88;43.02
78613;BME280;67933;51.060;3.638;2023-06-24T08:16:05;102622.13;;;28.19;42.45
78613;BME280;67933;51.060;3.638;2023-06-24T08:18:30;102624.44;;;28.65;41.17
78613;BME280;67933;51.060;3.638;2023-06-24T08:20:56;102620.16;;;28.89;43.77
78613;BME280;67933;51.060;3.638;2023-06-24T08:23:22;102618.28;;;28.97;41.65
78613;BME280;67933;51.060;3.638;2023-06-24T08:25:47;102609.78;;;28.66;41.85
78613;BME280;67933;51.060;3.638;2023-06-24T08:28:13;102609.47;;;28.69;40.93
78613;BME280;67933;51.060;3.638;2023-06-24T08:30:38;102610.38;;;28.78;42.01
78613;BME280;67933;51.060;3.638;2023-06-24T08:33:03;102608.22;;;28.98;41.62
78613;BME280;67933;51.060;3.638;2023-06-24T08:35:29;102601.50;;;29.42;40.86
78613;BME280;67933;51.060;3.638;2023-06-24T08:37:54;102596.91;;;28.85;40.60
78613;BME280;67933;51.060;3.638;2023-06-24T08:40:19;102599.38;;;29.12;40.78
78613;BME280;67933;51.060;3.638;2023-06-24T08:42:45;102601.19;;;29.45;40.25
78613;BME280;67933;51.060;3.638;2023-06-24T08:45:10;102604.78;;;29.54;39.03
78613;BME280;67933;51.060;3.638;2023-06-24T08:47:36;102597.94;;;29.66;39.69
78613;BME280;67933;51.060;3.638;2023-06-24T08:50:04;102596.56;;;30.11;37.74
78613;BME280;67933;51.060;3.638;2023-06-24T08:52:32;102594.72;;;29.95;38.37
78613;BME280;67933;51.060;3.638;2023-06-24T08:55:00;102598.75;;;30.32;39.00
78613;BME280;67933;51.060;3.638;2023-06-24T08:57:27;102606.81;;;30.25;38.06
78613;BME280;67933;51.060;3.638;2023-06-24T08:59:52;102596.03;;;30.23;39.63
78613;BME280;67933;51.060;3.638;2023-06-24T09:02:18;102600.34;;;30.73;36.32
78613;BME280;67933;51.060;3.638;2023-06-24T09:04:44;102600.88;;;30.69;36.98
78613;BME280;67933;51.060;3.638;2023-06-24T09:07:09;102606.06;;;30.55;37.74
78613;BME280;67933;51.060;3.638;2023-06-24T09:09:42;102599.31;;;29.87;36.72
78613;BME280;67933;51.060;3.638;2023-06-24T09:12:11;102596.06;;;30.07;36.10
78613;BME280;67933;51.060;3.638;2023-06-24T09:14:37;102603.22;;;29.92;37.79
78613;BME280;67933;51.060;3.638;2023-06-24T09:17:02;102604.97;;;29.93;37.61
78613;BME280;67933;51.060;3.638;2023-06-24T09:19:29;102594.53;;;29.97;38.08
78613;BME280;67933;51.060;3.638;2023-06-24T09:21:56;102599.03;;;30.45;38.12
78613;BME280;67933;51.060;3.638;2023-06-24T09:24:36;102592.34;;;30.47;36.62
78613;BME280;67933;51.060;3.638;2023-06-24T09:27:03;102598.00;;;30.54;36.15
78613;BME280;67933;51.060;3.638;2023-06-24T09:29:32;102588.78;;;30.39;36.51
78613;BME280;67933;51.060;3.638;2023-06-24T09:31:58;102597.28;;;30.60;35.96
78613;BME280;67933;51.060;3.638;2023-06-24T09:34:28;102590.03;;;31.14;35.89
78613;BME280;67933;51.060;3.638;2023-06-24T09:36:56;102586.44;;;31.06;34.75
78613;BME280;67933;51.060;3.638;2023-06-24T09:39:22;102586.63;;;31.58;33.49
78613;BME280;67933;51.060;3.638;2023-06-24T09:41:53;102584.50;;;31.68;33.84
78613;BME280;67933;51.060;3.638;2023-06-24T09:44:19;102587.88;;;32.07;32.96
78613;BME280;67933;51.060;3.638;2023-06-24T09:46:44;102584.91;;;32.76;34.45
78613;BME280;67933;51.060;3.638;2023-06-24T09:49:10;102575.16;;;32.29;31.86
78613;BME280;67933;51.060;3.638;2023-06-24T09:51:40;102573.84;;;32.25;33.69
78613;BME280;67933;51.060;3.638;2023-06-24T09:54:08;102572.28;;;32.67;33.13
78613;BME280;67933;51.060;3.638;2023-06-24T09:56:37;102575.25;;;32.36;30.04
78613;BME280;67933;51.060;3.638;2023-06-24T09:59:05;102563.56;;;31.90;31.76
78613;BME280;67933;51.060;3.638;2023-06-24T10:01:36;102556.09;;;32.13;32.91
78613;BME280;67933;51.060;3.638;2023-06-24T10:04:04;102561.72;;;32.34;32.56
78613;BME280;67933;51.060;3.638;2023-06-24T10:06:32;102564.81;;;33.11;30.26
78613;BME280;67933;51.060;3.638;2023-06-24T10:08:58;102566.50;;;33.12;30.16
78613;BME280;67933;51.060;3.638;2023-06-24T10:11:23;102566.44;;;32.70;31.74
78613;BME280;67933;51.060;3.638;2023-06-24T10:13:49;102562.47;;;33.30;30.90
78613;BME280;67933;51.060;3.638;2023-06-24T10:16:15;102562.47;;;33.30;29.04
78613;BME280;67933;51.060;3.638;2023-06-24T10:18:40;102564.59;;;33.28;28.20
78613;BME280;67933;51.060;3.638;2023-06-24T10:21:08;102562.56;;;33.36;27.08
78613;BME280;67933;51.060;3.638;2023-06-24T10:23:51;102554.41;;;33.98;30.49
78613;BME280;67933;51.060;3.638;2023-06-24T10:26:35;102561.88;;;33.55;27.86
78613;BME280;67933;51.060;3.638;2023-06-24T10:37:02;102536.38;;;33.96;30.49
78613;BME280;67933;51.060;3.638;2023-06-24T10:44:51;102536.06;;;33.84;28.38
78613;BME280;67933;51.060;3.638;2023-06-24T10:47:17;102527.09;;;34.04;28.12
78613;BME280;67933;51.060;3.638;2023-06-24T10:49:43;102533.81;;;33.67;29.01
78613;BME280;67933;51.060;3.638;2023-06-24T10:52:12;102526.28;;;33.54;28.96
78613;BME280;67933;51.060;3.638;2023-06-24T10:54:38;102528.53;;;33.22;29.47
78613;BME280;67933;51.060;3.638;2023-06-24T10:57:04;102527.81;;;33.84;28.12
78613;BME280;67933;51.060;3.638;2023-06-24T11:02:04;102513.06;;;34.74;27.16
78613;BME280;67933;51.060;3.638;2023-06-24T11:04:30;102516.59;;;33.58;26.51
78613;BME280;67933;51.060;3.638;2023-06-24T11:07:02;102527.19;;;33.82;25.72
78613;BME280;67933;51.060;3.638;2023-06-24T11:09:28;102518.91;;;34.51;26.83
78613;BME280;67933;51.060;3.638;2023-06-24T11:11:53;102521.66;;;34.51;28.71
78613;BME280;67933;51.060;3.638;2023-06-24T11:14:22;102520.91;;;33.67;26.83
78613;BME280;67933;51.060;3.638;2023-06-24T11:16:47;102516.53;;;33.51;28.86
78613;BME280;67933;51.060;3.638;2023-06-24T11:19:13;102508.91;;;34.44;27.46
78613;BME280;67933;51.060;3.638;2023-06-24T11:21:38;102507.56;;;34.81;28.31
78613;BME280;67933;51.060;3.638;2023-06-24T11:24:05;102513.44;;;34.64;25.42
78613;BME280;67933;51.060;3.638;2023-06-24T11:26:31;102497.47;;;33.50;27.47
78613;BME280;67933;51.060;3.638;2023-06-24T11:28:57;102510.47;;;34.66;26.83
78613;BME280;67933;51.060;3.638;2023-06-24T11:31:25;102500.25;;;35.27;28.23
78613;BME280;67933;51.060;3.638;2023-06-24T11:33:51;102505.78;;;34.53;25.62
78613;BME280;67933;51.060;3.638;2023-06-24T11:36:18;102510.59;;;32.69;28.15
78613;BME280;67933;51.060;3.638;2023-06-24T11:38:46;102501.44;;;32.83;28.67
78613;BME280;67933;51.060;3.638;2023-06-24T11:41:12;102492.25;;;33.83;27.60
78613;BME280;67933;51.060;3.638;2023-06-24T11:43:37;102496.94;;;34.23;28.41
78613;BME280;67933;51.060;3.638;2023-06-24T11:46:03;102498.09;;;34.42;28.77
78613;BME280;67933;51.060;3.638;2023-06-24T11:48:28;102496.47;;;33.85;28.75
78613;BME280;67933;51.060;3.638;2023-06-24T11:50:54;102488.19;;;34.20;28.23
78613;BME280;67933;51.060;3.638;2023-06-24T11:53:32;102481.31;;;35.18;26.60
78613;BME280;67933;51.060;3.638;2023-06-24T11:56:05;102482.09;;;34.79;26.35
78613;BME280;67933;51.060;3.638;2023-06-24T11:58:34;102492.47;;;33.88;26.41
78613;BME280;67933;51.060;3.638;2023-06-24T12:01:01;102489.16;;;33.71;26.84
78613;BME280;67933;51.060;3.638;2023-06-24T12:03:29;102476.63;;;35.18;29.35
78613;BME280;67933;51.060;3.638;2023-06-24T12:05:54;102476.69;;;35.44;25.06
78613;BME280;67933;51.060;3.638;2023-06-24T12:08:20;102477.97;;;35.22;26.43
78613;BME280;67933;51.060;3.638;2023-06-24T12:10:48;102467.94;;;35.15;25.91
78613;BME280;67933;51.060;3.638;2023-06-24T12:13:13;102467.50;;;35.64;25.47
78613;BME280;67933;51.060;3.638;2023-06-24T12:15:39;102462.25;;;35.29;24.48
78613;BME280;67933;51.060;3.638;2023-06-24T12:18:05;102461.88;;;34.65;25.50
78613;BME280;67933;51.060;3.638;2023-06-24T12:20:33;102473.50;;;34.47;24.24
78613;BME280;67933;51.060;3.638;2023-06-24T12:22:59;102468.91;;;34.67;25.81
78613;BME280;67933;51.060;3.638;2023-06-24T12:25:25;102460.28;;;34.84;24.84
78613;BME280;67933;51.060;3.638;2023-06-24T12:27:50;102462.44;;;35.15;25.14
78613;BME280;67933;51.060;3.638;2023-06-24T12:30:16;102464.25;;;34.20;26.85
78613;BME280;67933;51.060;3.638;2023-06-24T12:32:42;102453.88;;;33.81;27.55
78613;BME280;67933;51.060;3.638;2023-06-24T12:35:08;102447.34;;;34.91;25.04
78613;BME280;67933;51.060;3.638;2023-06-24T12:37:37;102439.66;;;35.92;24.85
78613;BME280;67933;51.060;3.638;2023-06-24T12:40:04;102436.09;;;36.36;23.87
78613;BME280;67933;51.060;3.638;2023-06-24T12:42:29;102439.75;;;36.30;23.55
78613;BME280;67933;51.060;3.638;2023-06-24T12:44:55;102435.03;;;36.37;22.68
78613;BME280;67933;51.060;3.638;2023-06-24T12:47:21;102432.63;;;35.89;22.79
78613;BME280;67933;51.060;3.638;2023-06-24T12:49:46;102429.53;;;35.53;23.67
78613;BME280;67933;51.060;3.638;2023-06-24T12:52:13;102431.22;;;35.54;26.27
78613;BME280;67933;51.060;3.638;2023-06-24T12:54:39;102427.63;;;36.17;24.78
78613;BME280;67933;51.060;3.638;2023-06-24T12:57:04;102422.09;;;36.17;24.22
78613;BME280;67933;51.060;3.638;2023-06-24T12:59:30;102425.16;;;36.85;22.33
78613;BME280;67933;51.060;3.638;2023-06-24T13:01:55;102421.84;;;35.68;23.88
78613;BME280;67933;51.060;3.638;2023-06-24T13:04:21;102422.22;;;35.91;24.12
78613;BME280;67933;51.060;3.638;2023-06-24T13:06:48;102429.22;;;36.83;22.38
78613;BME280;67933;51.060;3.638;2023-06-24T13:09:13;102426.25;;;36.84;20.36
78613;BME280;67933;51.060;3.638;2023-06-24T13:11:39;102427.28;;;35.94;20.39
78613;BME280;67933;51.060;3.638;2023-06-24T13:14:05;102416.38;;;35.15;22.94